Time;durP1;ratioP1;P1;durP2;ratioP2;P2;SDS_P1;SDS_P2;PMS_P1;PMS_P2;Temp;Humidity;BMP_temperature;BMP_pressure;BME280_temperature;BME280_humidity;BME280_pressure;Samples;Min_cycle;Max_cycle;Signal;HPM_P1;HPM_P2
2022/07/03 00:01:43;;;;;;;;;;;29.70;99.90;;;;;;5112970;27;19992;-75
2022/07/03 00:04:10;;;;;;;;;;;29.70;99.90;;;;;;5112996;27;20041;-74
2022/07/03 00:06:37;;;;;;;;;;;29.70;99.90;;;;;;5131558;27;20301;-74
2022/07/03 00:09:05;;;;;;;;;;;29.60;99.90;;;;;;5131580;27;19971;-75
2022/07/03 00:11:32;;;;;;;;;;;29.70;99.90;;;;;;5112673;27;19927;-74
2022/07/03 00:14:00;;;;;;;;;;;29.70;99.90;;;;;;5131474;27;19935;-75
2022/07/03 00:16:27;;;;;;;;;;;29.60;99.90;;;;;;5112587;27;19930;-75
2022/07/03 00:18:55;;;;;;;;;;;29.60;99.90;;;;;;5111948;27;19946;-74
2022/07/03 00:21:26;;;;;;;;;;;29.60;99.90;;;;;;5112185;27;20005;-74
2022/07/03 00:24:01;;;;;;;;;;;29.60;99.90;;;;;;5096096;27;19928;-74
2022/07/03 00:26:30;;;;;;;;;;;29.60;99.90;;;;;;5131061;27;20127;-75
2022/07/03 00:28:59;;;;;;;;;;;29.60;99.90;;;;;;5095739;27;19976;-74
2022/07/03 00:31:32;;;;;;;;;;;29.50;99.90;;;;;;5131144;27;19927;-75
2022/07/03 00:34:01;;;;;;;;;;;29.50;99.90;;;;;;5131003;27;19977;-75
2022/07/03 00:36:36;;;;;;;;;;;29.50;99.90;;;;;;5095754;27;19923;-74
2022/07/03 00:39:04;;;;;;;;;;;29.50;99.90;;;;;;5112723;27;20022;-75
2022/07/03 00:41:32;;;;;;;;;;;29.50;99.90;;;;;;5095197;27;20046;-75
2022/07/03 00:44:02;;;;;;;;;;;29.50;99.90;;;;;;5095302;27;19934;-74
2022/07/03 00:46:29;;;;;;;;;;;29.50;99.90;;;;;;5130894;27;19928;-74
2022/07/03 00:48:58;;;;;;;;;;;29.50;99.90;;;;;;5130653;27;20388;-75
2022/07/03 00:51:26;;;;;;;;;;;29.40;99.90;;;;;;5112269;27;19928;-75
2022/07/03 00:53:55;;;;;;;;;;;29.50;99.90;;;;;;5111980;27;20453;-74
2022/07/03 00:56:25;;;;;;;;;;;29.40;99.90;;;;;;5107107;28;20357;-75
2022/07/03 00:58:54;;;;;;;;;;;29.40;99.90;;;;;;5091950;28;19928;-74
2022/07/03 01:01:23;;;;;;;;;;;29.50;99.90;;;;;;5074418;28;19928;-75
2022/07/03 01:03:58;;;;;;;;;;;29.50;99.90;;;;;;5092091;28;19983;-74
2022/07/03 01:06:27;;;;;;;;;;;29.40;99.90;;;;;;5091999;28;19938;-74
2022/07/03 01:08:59;;;;;;;;;;;29.40;99.90;;;;;;5091381;28;19934;-74
2022/07/03 01:11:46;;;;;;;;;;;29.40;99.90;;;;;;5091656;28;19993;-74
2022/07/03 01:14:26;;;;;;;;;;;29.40;99.90;;;;;;5075378;28;19932;-74
2022/07/03 01:16:54;;;;;;;;;;;29.40;99.90;;;;;;5106534;28;20010;-74
2022/07/03 01:19:43;;;;;;;;;;;29.40;99.90;;;;;;5091505;28;20042;-75
2022/07/03 01:22:30;;;;;;;;;;;29.30;99.90;;;;;;5108557;28;20002;-75
2022/07/03 01:25:14;;;;;;;;;;;29.40;99.90;;;;;;5108991;28;20357;-74
2022/07/03 01:28:00;;;;;;;;;;;29.30;99.90;;;;;;5109620;28;20062;-75
2022/07/03 01:30:28;;;;;;;;;;;29.40;99.90;;;;;;5108382;28;19923;-74
2022/07/03 01:33:01;;;;;;;;;;;29.30;99.90;;;;;;5109772;28;19935;-74
2022/07/03 01:35:32;;;;;;;;;;;29.30;99.90;;;;;;5091379;28;20302;-74
2022/07/03 01:38:04;;;;;;;;;;;29.40;99.90;;;;;;5091559;28;19927;-74
2022/07/03 01:40:32;;;;;;;;;;;29.30;99.90;;;;;;5109351;28;20383;-74
2022/07/03 01:43:02;;;;;;;;;;;29.30;99.90;;;;;;5091658;28;19928;-74
2022/07/03 01:45:31;;;;;;;;;;;29.30;99.90;;;;;;5091417;28;19930;-74
2022/07/03 01:47:59;;;;;;;;;;;29.30;99.90;;;;;;5091769;28;20014;-74
2022/07/03 01:50:28;;;;;;;;;;;29.20;99.90;;;;;;5091548;28;19939;-74
2022/07/03 01:52:56;;;;;;;;;;;29.20;99.90;;;;;;5091225;28;19947;-75
2022/07/03 01:55:24;;;;;;;;;;;29.20;99.90;;;;;;5091084;28;20317;-74
2022/07/03 01:57:51;;;;;;;;;;;29.20;99.90;;;;;;5109595;28;19977;-74
2022/07/03 02:00:20;;;;;;;;;;;29.20;99.90;;;;;;5091344;28;19924;-74
2022/07/03 02:02:50;;;;;;;;;;;29.20;99.90;;;;;;5090807;28;20451;-74
2022/07/03 02:05:18;;;;;;;;;;;29.20;99.90;;;;;;5107731;28;19927;-75
2022/07/03 02:08:04;;;;;;;;;;;29.20;99.90;;;;;;5074388;28;19946;-74
2022/07/03 02:10:38;;;;;;;;;;;29.20;99.90;;;;;;5073908;28;19931;-74
2022/07/03 02:13:15;;;;;;;;;;;29.20;99.90;;;;;;5074410;28;20036;-74
2022/07/03 02:15:43;;;;;;;;;;;29.20;99.90;;;;;;5090805;28;20297;-74
2022/07/03 02:18:14;;;;;;;;;;;29.20;99.90;;;;;;5108854;28;19928;-74
2022/07/03 02:20:45;;;;;;;;;;;29.20;99.90;;;;;;5073427;28;20293;-75
2022/07/03 02:23:13;;;;;;;;;;;29.20;99.90;;;;;;5074326;28;19932;-74
2022/07/03 02:25:41;;;;;;;;;;;29.20;99.90;;;;;;5091206;28;19934;-74
2022/07/03 02:28:27;;;;;;;;;;;29.20;99.90;;;;;;5090691;28;19928;-74
2022/07/03 02:30:57;;;;;;;;;;;29.20;99.90;;;;;;5074429;28;19974;-74
2022/07/03 02:33:25;;;;;;;;;;;29.20;99.90;;;;;;5073430;28;19974;-74
2022/07/03 02:35:54;;;;;;;;;;;29.20;99.90;;;;;;5108103;28;20032;-74
2022/07/03 02:38:21;;;;;;;;;;;29.20;99.90;;;;;;5090889;28;19932;-74
2022/07/03 02:40:54;;;;;;;;;;;29.20;99.90;;;;;;5074203;28;19931;-74
2022/07/03 02:43:41;;;;;;;;;;;29.20;99.90;;;;;;5077506;28;20060;-75
2022/07/03 02:49:12;;;;;;;;;;;29.10;99.90;;;;;;5094393;28;19928;-74
2022/07/03 02:51:44;;;;;;;;;;;29.10;99.90;;;;;;5077646;28;19934;-75
2022/07/03 02:54:15;;;;;;;;;;;29.10;99.90;;;;;;5094025;28;19927;-75
2022/07/03 02:56:45;;;;;;;;;;;29.00;99.90;;;;;;5112572;28;20447;-74
2022/07/03 02:59:21;;;;;;;;;;;29.00;99.90;;;;;;5105531;27;19946;-75
2022/07/03 03:01:57;;;;;;;;;;;29.00;99.90;;;;;;5112785;27;19928;-75
2022/07/03 03:04:34;;;;;;;;;;;29.00;99.90;;;;;;5094493;28;19975;-74
2022/07/03 03:07:05;;;;;;;;;;;29.00;99.90;;;;;;5094370;28;19935;-74
2022/07/03 03:09:39;;;;;;;;;;;28.90;99.90;;;;;;5077393;28;19967;-74
2022/07/03 03:12:08;;;;;;;;;;;28.90;99.90;;;;;;5092307;28;19981;-75
2022/07/03 03:14:43;;;;;;;;;;;28.90;99.90;;;;;;5076087;28;19927;-75
2022/07/03 03:17:37;;;;;;;;;;;28.90;99.90;;;;;;5093026;28;19931;-75
2022/07/03 03:20:05;;;;;;;;;;;28.90;99.90;;;;;;5074090;28;19927;-75
2022/07/03 03:22:33;;;;;;;;;;;28.90;99.90;;;;;;5076494;28;19931;-75
2022/07/03 03:25:01;;;;;;;;;;;28.90;99.90;;;;;;5076921;28;19972;-75
2022/07/03 03:27:29;;;;;;;;;;;28.90;99.90;;;;;;5093296;28;19949;-75
2022/07/03 03:29:56;;;;;;;;;;;28.90;99.90;;;;;;5111869;28;19934;-75
2022/07/03 03:32:24;;;;;;;;;;;28.90;99.90;;;;;;5076659;28;19970;-75
2022/07/03 03:34:52;;;;;;;;;;;28.90;99.90;;;;;;5093646;28;20373;-75
2022/07/03 03:37:19;;;;;;;;;;;28.90;99.90;;;;;;5076796;28;20385;-75
2022/07/03 03:39:47;;;;;;;;;;;28.90;99.90;;;;;;5076567;28;19975;-75
2022/07/03 03:42:14;;;;;;;;;;;28.90;99.90;;;;;;5076451;28;19962;-75
2022/07/03 03:44:41;;;;;;;;;;;28.90;99.90;;;;;;5093275;28;19928;-75
2022/07/03 03:47:09;;;;;;;;;;;28.90;99.90;;;;;;5076306;28;20378;-74
2022/07/03 03:49:36;;;;;;;;;;;28.90;99.90;;;;;;5093739;27;19971;-75
2022/07/03 03:52:04;;;;;;;;;;;28.90;99.90;;;;;;5111522;27;20114;-75
2022/07/03 03:54:31;;;;;;;;;;;28.90;99.90;;;;;;5109976;28;19957;-74
2022/07/03 03:57:19;;;;;;;;;;;28.90;99.90;;;;;;5109797;28;20080;-74
2022/07/03 03:59:47;;;;;;;;;;;28.90;99.90;;;;;;5075820;28;19993;-74
2022/07/03 04:02:15;;;;;;;;;;;28.80;99.90;;;;;;5075746;28;20075;-74
2022/07/03 04:04:42;;;;;;;;;;;28.90;99.90;;;;;;5075728;28;20026;-74
2022/07/03 04:07:10;;;;;;;;;;;28.90;99.90;;;;;;5092617;28;19959;-74
2022/07/03 04:09:37;;;;;;;;;;;28.90;99.90;;;;;;5109995;28;19993;-74
2022/07/03 04:12:05;;;;;;;;;;;29.00;99.90;;;;;;5076167;28;20028;-74
2022/07/03 04:14:32;;;;;;;;;;;29.00;99.90;;;;;;5093096;28;19971;-74
2022/07/03 04:17:00;;;;;;;;;;;29.10;99.90;;;;;;5075447;28;20430;-74
2022/07/03 04:19:27;;;;;;;;;;;29.10;99.90;;;;;;5110765;28;20342;-74
2022/07/03 04:21:54;;;;;;;;;;;29.20;99.90;;;;;;5110632;28;19928;-74
2022/07/03 04:24:22;;;;;;;;;;;29.20;99.90;;;;;;5092240;28;19928;-74
2022/07/03 04:26:49;;;;;;;;;;;29.20;99.90;;;;;;5108828;28;19934;-74
2022/07/03 04:29:17;;;;;;;;;;;29.30;99.90;;;;;;5092255;28;19961;-74
2022/07/03 04:31:44;;;;;;;;;;;29.30;99.90;;;;;;5075126;28;19928;-75
2022/07/03 04:34:12;;;;;;;;;;;29.40;99.90;;;;;;5092237;28;20080;-75
2022/07/03 04:36:40;;;;;;;;;;;29.40;99.90;;;;;;5091993;28;19927;-75
2022/07/03 04:39:07;;;;;;;;;;;29.50;99.90;;;;;;5057714;28;19927;-75
2022/07/03 04:41:35;;;;;;;;;;;29.60;99.90;;;;;;5074883;28;19923;-75
2022/07/03 04:44:02;;;;;;;;;;;29.60;99.90;;;;;;5110126;28;20300;-75
2022/07/03 04:46:30;;;;;;;;;;;29.70;99.90;;;;;;5085419;28;19935;-74
2022/07/03 04:48:57;;;;;;;;;;;29.90;99.90;;;;;;5110242;28;20019;-74
2022/07/03 04:51:24;;;;;;;;;;;30.00;99.90;;;;;;5091683;28;19967;-75
2022/07/03 04:53:52;;;;;;;;;;;30.00;99.90;;;;;;5110181;28;19931;-75
2022/07/03 04:56:19;;;;;;;;;;;30.10;99.90;;;;;;5075076;28;19935;-75
2022/07/03 04:58:47;;;;;;;;;;;30.20;99.90;;;;;;5108580;28;19976;-75
2022/07/03 05:01:14;;;;;;;;;;;30.30;99.90;;;;;;5089975;28;19928;-75
2022/07/03 05:03:41;;;;;;;;;;;30.30;99.90;;;;;;5073416;28;19938;-74
2022/07/03 05:06:09;;;;;;;;;;;30.40;99.90;;;;;;5107802;28;19928;-75
2022/07/03 05:08:36;;;;;;;;;;;30.40;99.60;;;;;;5075029;28;19927;-75
2022/07/03 05:11:04;;;;;;;;;;;30.50;99.50;;;;;;5075209;28;20046;-75
2022/07/03 05:13:31;;;;;;;;;;;30.60;99.30;;;;;;5091243;28;20382;-75
2022/07/03 05:15:58;;;;;;;;;;;30.80;99.00;;;;;;5091499;28;19950;-75
2022/07/03 05:18:26;;;;;;;;;;;30.80;98.70;;;;;;5074979;28;19928;-75
2022/07/03 05:20:53;;;;;;;;;;;30.80;98.50;;;;;;5057998;28;20046;-75
2022/07/03 05:23:20;;;;;;;;;;;30.90;98.50;;;;;;5108464;28;19924;-75
2022/07/03 05:25:48;;;;;;;;;;;31.10;98.40;;;;;;5074551;28;19931;-75
2022/07/03 05:28:15;;;;;;;;;;;31.20;98.20;;;;;;5074057;28;19928;-75
2022/07/03 05:30:43;;;;;;;;;;;31.20;98.00;;;;;;5074845;28;20014;-75
2022/07/03 05:33:13;;;;;;;;;;;31.30;97.70;;;;;;5088179;28;20415;-75
2022/07/03 05:35:40;;;;;;;;;;;31.30;97.70;;;;;;5057888;28;20313;-75
2022/07/03 05:38:07;;;;;;;;;;;31.50;97.50;;;;;;5091223;28;19928;-75
2022/07/03 05:40:35;;;;;;;;;;;31.50;97.10;;;;;;5109300;28;20427;-75
2022/07/03 05:43:02;;;;;;;;;;;31.50;97.00;;;;;;5090852;28;20046;-75
2022/07/03 05:45:30;;;;;;;;;;;31.50;96.90;;;;;;5090694;28;19923;-75
2022/07/03 05:47:57;;;;;;;;;;;31.60;96.80;;;;;;5074021;28;19934;-75
2022/07/03 05:50:25;;;;;;;;;;;31.70;96.60;;;;;;5074399;28;20282;-75
2022/07/03 05:52:52;;;;;;;;;;;31.80;96.30;;;;;;5074593;28;19923;-74
2022/07/03 05:55:20;;;;;;;;;;;31.90;96.20;;;;;;5107936;28;20342;-75
2022/07/03 05:57:47;;;;;;;;;;;32.00;96.00;;;;;;5074459;28;19935;-75
2022/07/03 06:00:15;;;;;;;;;;;32.10;96.00;;;;;;5073808;28;20030;-75
2022/07/03 06:02:42;;;;;;;;;;;32.20;95.90;;;;;;5107119;28;19928;-75
2022/07/03 06:05:09;;;;;;;;;;;32.20;95.80;;;;;;5091099;28;20280;-75
2022/07/03 06:07:37;;;;;;;;;;;32.30;95.90;;;;;;5090545;28;20390;-76
2022/07/03 06:10:04;;;;;;;;;;;32.40;95.80;;;;;;5074284;28;19934;-75
2022/07/03 06:12:32;;;;;;;;;;;32.50;95.70;;;;;;5074000;28;20300;-75
2022/07/03 06:14:59;;;;;;;;;;;32.60;95.70;;;;;;5091026;28;20026;-75
2022/07/03 06:17:28;;;;;;;;;;;32.60;95.50;;;;;;5077068;28;19959;-75
2022/07/03 06:19:55;;;;;;;;;;;32.70;95.50;;;;;;5112925;28;19928;-75
2022/07/03 06:22:22;;;;;;;;;;;32.80;95.50;;;;;;5090960;28;19928;-75
2022/07/03 06:24:50;;;;;;;;;;;32.90;95.50;;;;;;5094085;28;20480;-75
2022/07/03 06:27:17;;;;;;;;;;;33.10;95.40;;;;;;5061115;28;19928;-76
2022/07/03 06:29:44;;;;;;;;;;;33.30;95.20;;;;;;5077829;28;20026;-75
2022/07/03 06:32:12;;;;;;;;;;;33.40;95.00;;;;;;5078144;28;19994;-75
2022/07/03 06:34:39;;;;;;;;;;;33.50;94.90;;;;;;5094549;28;20296;-75
2022/07/03 06:37:07;;;;;;;;;;;33.40;94.60;;;;;;5094053;28;19928;-75
2022/07/03 06:39:34;;;;;;;;;;;33.30;94.80;;;;;;5111293;28;19959;-75
2022/07/03 06:42:01;;;;;;;;;;;33.40;94.70;;;;;;5077772;28;19927;-75
2022/07/03 06:44:29;;;;;;;;;;;33.50;94.80;;;;;;5077511;28;20351;-75
2022/07/03 06:46:56;;;;;;;;;;;33.60;94.80;;;;;;5112367;28;20012;-75
2022/07/03 06:49:24;;;;;;;;;;;33.70;94.90;;;;;;5076988;28;19966;-75
2022/07/03 06:51:52;;;;;;;;;;;33.90;94.50;;;;;;5111167;28;20047;-76
2022/07/03 06:54:19;;;;;;;;;;;33.80;94.50;;;;;;5112290;28;19928;-75
2022/07/03 06:56:46;;;;;;;;;;;33.80;94.10;;;;;;5077340;28;20397;-75
2022/07/03 06:59:14;;;;;;;;;;;33.90;93.90;;;;;;5094003;28;19924;-75
2022/07/03 07:01:41;;;;;;;;;;;34.00;94.00;;;;;;5094289;28;20026;-75
2022/07/03 07:04:09;;;;;;;;;;;34.00;93.90;;;;;;5110985;28;20368;-75
2022/07/03 07:06:36;;;;;;;;;;;34.10;93.80;;;;;;5076770;28;19928;-75
2022/07/03 07:09:04;;;;;;;;;;;34.20;93.80;;;;;;5094030;28;20105;-75
2022/07/03 07:11:32;;;;;;;;;;;34.30;93.40;;;;;;5076743;28;19967;-75
2022/07/03 07:13:59;;;;;;;;;;;34.40;93.10;;;;;;5094139;28;19975;-75
2022/07/03 07:16:26;;;;;;;;;;;34.40;93.20;;;;;;5126795;27;19931;-75
2022/07/03 07:18:54;;;;;;;;;;;34.50;93.30;;;;;;5097388;27;19972;-75
2022/07/03 07:21:21;;;;;;;;;;;34.60;92.70;;;;;;5096747;27;19931;-75
2022/07/03 07:23:48;;;;;;;;;;;34.50;92.40;;;;;;5132492;27;19980;-75
2022/07/03 07:26:18;;;;;;;;;;;34.50;92.70;;;;;;5132079;27;19977;-75
2022/07/03 07:28:46;;;;;;;;;;;34.50;92.20;;;;;;5096767;27;19935;-75
2022/07/03 07:31:13;;;;;;;;;;;34.50;91.40;;;;;;5096485;27;19931;-75
2022/07/03 07:33:41;;;;;;;;;;;34.50;91.00;;;;;;5097273;27;20018;-75
2022/07/03 07:36:08;;;;;;;;;;;34.60;90.80;;;;;;5114101;27;19942;-76
2022/07/03 07:38:35;;;;;;;;;;;34.60;91.10;;;;;;5113782;27;19928;-76
2022/07/03 07:41:03;;;;;;;;;;;34.60;91.50;;;;;;5078816;27;19931;-75
2022/07/03 07:43:30;;;;;;;;;;;34.50;91.40;;;;;;5113396;27;19935;-75
2022/07/03 07:45:58;;;;;;;;;;;34.70;91.00;;;;;;5096473;27;19939;-76
2022/07/03 07:48:25;;;;;;;;;;;34.80;91.00;;;;;;5131769;27;20037;-76
2022/07/03 07:50:53;;;;;;;;;;;34.80;90.90;;;;;;5096759;27;19931;-76
2022/07/03 07:53:20;;;;;;;;;;;34.70;91.10;;;;;;5113575;27;20338;-76
2022/07/03 07:55:48;;;;;;;;;;;34.70;91.50;;;;;;5111328;27;19972;-76
2022/07/03 07:58:15;;;;;;;;;;;34.60;91.50;;;;;;5131831;27;19923;-76
2022/07/03 08:06:15;;;;;;;;;;;34.60;90.60;;;;;;5110116;28;19924;-76
2022/07/03 08:08:43;;;;;;;;;;;34.70;90.80;;;;;;5092964;28;19996;-76
2022/07/03 08:11:10;;;;;;;;;;;34.90;90.60;;;;;;5092537;28;19924;-76
2022/07/03 08:13:37;;;;;;;;;;;35.10;90.40;;;;;;5110834;28;19927;-76
2022/07/03 08:16:05;;;;;;;;;;;35.20;90.60;;;;;;5075554;28;19931;-76
2022/07/03 08:18:32;;;;;;;;;;;35.10;90.70;;;;;;5075338;28;19934;-76
2022/07/03 08:21:00;;;;;;;;;;;34.80;91.10;;;;;;5111036;28;20026;-76
2022/07/03 08:23:27;;;;;;;;;;;34.60;90.90;;;;;;5076007;28;19992;-77
2022/07/03 08:25:55;;;;;;;;;;;34.60;90.50;;;;;;5092279;28;19947;-77
2022/07/03 08:28:22;;;;;;;;;;;34.60;90.70;;;;;;5075663;28;19975;-77
2022/07/03 08:30:49;;;;;;;;;;;34.80;90.80;;;;;;5092260;28;19996;-77
2022/07/03 08:33:17;;;;;;;;;;;34.60;90.80;;;;;;5109034;28;20282;-77
2022/07/03 08:35:44;;;;;;;;;;;34.70;90.80;;;;;;5075080;28;19932;-75
2022/07/03 08:38:12;;;;;;;;;;;34.60;90.70;;;;;;5091618;28;20293;-75
2022/07/03 08:40:40;;;;;;;;;;;34.60;90.90;;;;;;5109646;28;19931;-75
2022/07/03 08:43:07;;;;;;;;;;;34.50;91.10;;;;;;5075134;28;20341;-76
2022/07/03 08:45:35;;;;;;;;;;;34.50;91.00;;;;;;5058843;28;19989;-75
2022/07/03 08:48:04;;;;;;;;;;;34.60;91.20;;;;;;5110101;28;19954;-75
2022/07/03 08:50:32;;;;;;;;;;;34.70;91.20;;;;;;5091961;28;20304;-75
2022/07/03 08:53:00;;;;;;;;;;;34.90;91.20;;;;;;5091837;28;20031;-76
2022/07/03 08:55:27;;;;;;;;;;;34.90;91.30;;;;;;5093391;28;19932;-75
2022/07/03 08:57:58;;;;;;;;;;;35.00;91.20;;;;;;5109911;28;20664;-75
2022/07/03 09:00:26;;;;;;;;;;;35.20;90.90;;;;;;5110073;28;19987;-75
2022/07/03 09:02:54;;;;;;;;;;;35.20;90.70;;;;;;5058932;28;20030;-76
2022/07/03 09:05:22;;;;;;;;;;;35.00;90.50;;;;;;5091803;28;19930;-76
2022/07/03 09:07:49;;;;;;;;;;;34.90;90.60;;;;;;5091709;28;19932;-76
2022/07/03 09:10:18;;;;;;;;;;;35.00;90.60;;;;;;5058498;28;19923;-76
2022/07/03 09:12:46;;;;;;;;;;;35.10;90.70;;;;;;5091789;28;19981;-76
2022/07/03 09:15:14;;;;;;;;;;;35.10;91.00;;;;;;5091728;28;19934;-76
2022/07/03 09:18:00;;;;;;;;;;;35.10;91.30;;;;;;5091406;28;19969;-76
2022/07/03 09:20:32;;;;;;;;;;;35.20;91.20;;;;;;5092010;28;19924;-76
2022/07/03 09:23:14;;;;;;;;;;;35.30;90.50;;;;;;5091546;28;19928;-76
2022/07/03 09:25:51;;;;;;;;;;;35.30;90.60;;;;;;5091564;28;19930;-76
2022/07/03 09:28:23;;;;;;;;;;;35.30;90.50;;;;;;5109902;28;19924;-76
2022/07/03 09:30:57;;;;;;;;;;;35.30;90.40;;;;;;5091303;28;19958;-76
2022/07/03 09:33:25;;;;;;;;;;;35.50;90.40;;;;;;5090503;28;19934;-76
2022/07/03 09:35:53;;;;;;;;;;;35.60;90.10;;;;;;5091909;28;20016;-76
2022/07/03 09:38:21;;;;;;;;;;;35.20;90.30;;;;;;5074371;28;20010;-76
2022/07/03 09:40:49;;;;;;;;;;;35.40;90.00;;;;;;5091714;28;19932;-76
2022/07/03 09:43:24;;;;;;;;;;;35.40;90.10;;;;;;5105840;28;20385;-75
2022/07/03 09:45:56;;;;;;;;;;;35.40;90.40;;;;;;5094722;28;19923;-75
2022/07/03 09:48:24;;;;;;;;;;;35.50;90.30;;;;;;5111714;28;19931;-75
2022/07/03 09:51:10;;;;;;;;;;;35.50;90.40;;;;;;5097300;27;20038;-75
2022/07/03 09:53:44;;;;;;;;;;;35.50;90.00;;;;;;5098779;27;19927;-75
2022/07/03 09:56:11;;;;;;;;;;;35.40;89.80;;;;;;5098841;27;20338;-75
2022/07/03 09:58:39;;;;;;;;;;;35.40;89.90;;;;;;5099358;27;19931;-75
2022/07/03 10:01:17;;;;;;;;;;;35.50;90.10;;;;;;5098614;27;19931;-75
2022/07/03 10:03:46;;;;;;;;;;;35.30;90.30;;;;;;5115701;27;20016;-75
2022/07/03 10:06:14;;;;;;;;;;;35.30;90.10;;;;;;5115670;27;19956;-75
2022/07/03 10:08:42;;;;;;;;;;;35.20;90.00;;;;;;5115552;27;19931;-75
2022/07/03 10:11:09;;;;;;;;;;;35.30;89.90;;;;;;5115082;27;19927;-75
2022/07/03 10:13:40;;;;;;;;;;;35.40;88.60;;;;;;5115466;27;19934;-75
2022/07/03 10:16:08;;;;;;;;;;;35.30;88.80;;;;;;5098224;27;20231;-75
2022/07/03 10:18:39;;;;;;;;;;;35.20;88.90;;;;;;5115677;27;19934;-75
2022/07/03 10:21:07;;;;;;;;;;;35.30;89.20;;;;;;5098630;27;19923;-75
2022/07/03 10:23:34;;;;;;;;;;;35.20;89.20;;;;;;5133644;27;20293;-75
2022/07/03 10:26:02;;;;;;;;;;;35.30;89.90;;;;;;5133290;27;20381;-75
2022/07/03 10:28:30;;;;;;;;;;;35.40;90.20;;;;;;5114769;27;20033;-75
2022/07/03 10:30:59;;;;;;;;;;;35.60;90.30;;;;;;5096777;27;20018;-76
2022/07/03 10:33:27;;;;;;;;;;;35.70;90.70;;;;;;5094095;28;19980;-75
2022/07/03 10:35:56;;;;;;;;;;;35.70;90.80;;;;;;5094332;28;20033;-75
2022/07/03 10:38:39;;;;;;;;;;;35.70;90.20;;;;;;5094579;28;19930;-75
2022/07/03 10:44:59;;;;;;;;;;;35.70;89.70;;;;;;5094436;28;19932;-75
2022/07/03 10:47:02;;;;;;;;;;;35.70;90.50;;;;;;5067307;28;19928;-75
2022/07/03 10:49:32;;;;;;;;;;;35.60;90.40;;;;;;5094230;28;19923;-75
2022/07/03 10:52:00;;;;;;;;;;;35.60;90.00;;;;;;5111301;28;20595;-75
2022/07/03 10:54:28;;;;;;;;;;;35.50;88.90;;;;;;5094376;28;19980;-75
2022/07/03 10:57:01;;;;;;;;;;;35.30;88.60;;;;;;5094118;28;20026;-75
2022/07/03 10:59:31;;;;;;;;;;;35.40;89.70;;;;;;5093937;28;19932;-75
2022/07/03 11:02:18;;;;;;;;;;;35.40;88.60;;;;;;5093496;28;20019;-75
2022/07/03 11:04:58;;;;;;;;;;;35.40;86.20;;;;;;5093970;27;19928;-76
2022/07/03 11:07:26;;;;;;;;;;;35.20;88.30;;;;;;5121503;27;20369;-75
2022/07/03 11:10:06;;;;;;;;;;;35.10;89.10;;;;;;5083183;27;20024;-75
2022/07/03 11:12:52;;;;;;;;;;;35.10;88.20;;;;;;5087123;28;19928;-75
2022/07/03 11:15:37;;;;;;;;;;;35.10;88.10;;;;;;5112545;27;20026;-75
2022/07/03 11:18:08;;;;;;;;;;;35.00;90.00;;;;;;5109363;28;19935;-75
2022/07/03 11:20:41;;;;;;;;;;;34.90;90.20;;;;;;5082506;27;19931;-75
2022/07/03 11:23:09;;;;;;;;;;;34.90;90.30;;;;;;5094283;28;20369;-75
2022/07/03 11:25:40;;;;;;;;;;;34.90;90.40;;;;;;5097923;27;20072;-75
2022/07/03 11:28:08;;;;;;;;;;;34.90;89.90;;;;;;5104843;27;19923;-75
2022/07/03 11:30:57;;;;;;;;;;;35.00;90.00;;;;;;5109894;27;19927;-75
2022/07/03 11:33:40;;;;;;;;;;;34.90;89.60;;;;;;5103160;28;19927;-75
2022/07/03 11:36:11;;;;;;;;;;;34.80;90.10;;;;;;5068101;27;19927;-75
2022/07/03 11:38:39;;;;;;;;;;;34.80;89.70;;;;;;5083285;28;20049;-75
2022/07/03 11:41:07;;;;;;;;;;;34.90;90.00;;;;;;5084909;27;20664;-76
2022/07/03 11:43:35;;;;;;;;;;;35.00;90.10;;;;;;5087852;28;20255;-75
2022/07/03 11:46:03;;;;;;;;;;;35.00;90.10;;;;;;5080222;27;19924;-75
2022/07/03 11:48:31;;;;;;;;;;;34.90;88.20;;;;;;5117421;27;19928;-75
2022/07/03 11:51:01;;;;;;;;;;;34.90;88.20;;;;;;5074986;27;19983;-75
2022/07/03 11:53:32;;;;;;;;;;;34.90;87.20;;;;;;5101814;28;19934;-75
2022/07/03 11:56:00;;;;;;;;;;;34.70;86.30;;;;;;5110348;27;19928;-75
2022/07/03 11:58:57;;;;;;;;;;;34.70;87.50;;;;;;5099492;27;19952;-75
2022/07/03 12:01:25;;;;;;;;;;;34.60;89.00;;;;;;5058904;28;19947;-75
2022/07/03 12:03:53;;;;;;;;;;;34.70;88.40;;;;;;5079376;28;20404;-75
2022/07/03 12:06:21;;;;;;;;;;;34.70;86.90;;;;;;5102002;27;19928;-75
2022/07/03 12:08:48;;;;;;;;;;;34.80;86.60;;;;;;5114426;27;19942;-75
2022/07/03 12:11:17;;;;;;;;;;;34.70;88.40;;;;;;5090961;28;20296;-75
2022/07/03 12:13:45;;;;;;;;;;;34.60;91.10;;;;;;5114031;27;19927;-75
2022/07/03 12:16:13;;;;;;;;;;;34.50;90.10;;;;;;5094891;28;19923;-74
2022/07/03 12:18:44;;;;;;;;;;;34.50;90.00;;;;;;5108058;27;19927;-74
2022/07/03 12:21:12;;;;;;;;;;;34.50;91.40;;;;;;5096957;28;19927;-74
2022/07/03 12:23:41;;;;;;;;;;;34.40;90.70;;;;;;5060222;28;19946;-74
2022/07/03 12:26:08;;;;;;;;;;;34.40;90.20;;;;;;5094761;27;20377;-74
2022/07/03 12:28:36;;;;;;;;;;;34.50;90.20;;;;;;5083545;28;19992;-75
2022/07/03 12:31:04;;;;;;;;;;;34.50;89.50;;;;;;5092498;28;20298;-74
2022/07/03 12:33:35;;;;;;;;;;;34.50;89.90;;;;;;5092467;28;19935;-74
2022/07/03 12:36:03;;;;;;;;;;;34.40;88.50;;;;;;5110565;28;19934;-75
2022/07/03 12:38:30;;;;;;;;;;;34.50;89.00;;;;;;5092126;28;20253;-74
2022/07/03 12:41:02;;;;;;;;;;;34.50;89.00;;;;;;5075464;28;19931;-75
2022/07/03 12:43:39;;;;;;;;;;;34.50;88.00;;;;;;5075211;28;19939;-74
2022/07/03 12:46:26;;;;;;;;;;;34.40;88.20;;;;;;5110317;28;20362;-75
2022/07/03 12:48:54;;;;;;;;;;;34.60;88.10;;;;;;5092558;28;19924;-75
2022/07/03 12:51:41;;;;;;;;;;;34.60;86.90;;;;;;5091979;28;19934;-75
2022/07/03 12:54:08;;;;;;;;;;;34.40;85.90;;;;;;5091921;28;19947;-75
2022/07/03 12:56:36;;;;;;;;;;;34.40;85.70;;;;;;5091667;28;19934;-75
2022/07/03 12:59:16;;;;;;;;;;;34.20;85.90;;;;;;5091804;28;19945;-75
2022/07/03 13:01:45;;;;;;;;;;;34.30;85.90;;;;;;5092193;28;20018;-74
2022/07/03 13:04:15;;;;;;;;;;;34.30;85.10;;;;;;5075434;28;20035;-75
2022/07/03 13:06:45;;;;;;;;;;;34.30;85.10;;;;;;5109954;28;19924;-75
2022/07/03 13:09:13;;;;;;;;;;;34.40;84.80;;;;;;5092002;28;19927;-74
2022/07/03 13:11:41;;;;;;;;;;;34.40;85.50;;;;;;5130185;27;19934;-75
2022/07/03 13:14:10;;;;;;;;;;;34.50;85.20;;;;;;5111795;27;19970;-75
2022/07/03 13:16:38;;;;;;;;;;;34.60;85.10;;;;;;5129907;27;20046;-75
2022/07/03 13:19:06;;;;;;;;;;;34.60;85.40;;;;;;5111286;27;19923;-75
2022/07/03 13:21:34;;;;;;;;;;;34.40;84.50;;;;;;5111861;27;19927;-75
2022/07/03 13:24:03;;;;;;;;;;;34.40;85.50;;;;;;5078002;27;19923;-75
2022/07/03 13:26:31;;;;;;;;;;;34.40;85.70;;;;;;5130084;27;19928;-75
2022/07/03 13:28:59;;;;;;;;;;;34.50;85.00;;;;;;5111753;28;19927;-75
2022/07/03 13:31:26;;;;;;;;;;;34.50;84.20;;;;;;5094882;28;19927;-75
2022/07/03 13:33:54;;;;;;;;;;;34.60;83.90;;;;;;5111844;28;19959;-75
2022/07/03 13:36:22;;;;;;;;;;;34.50;82.90;;;;;;5112058;28;19933;-75
2022/07/03 13:38:50;;;;;;;;;;;34.60;82.80;;;;;;5130142;27;19953;-75
2022/07/03 13:41:18;;;;;;;;;;;34.60;83.40;;;;;;5111159;28;19927;-75
2022/07/03 13:43:46;;;;;;;;;;;34.60;83.70;;;;;;5111937;28;20624;-75
2022/07/03 13:46:14;;;;;;;;;;;34.50;82.80;;;;;;5130194;28;19927;-75
2022/07/03 13:48:42;;;;;;;;;;;34.60;81.90;;;;;;5094957;28;19950;-75
2022/07/03 13:51:09;;;;;;;;;;;34.50;81.70;;;;;;5111137;28;19924;-74
2022/07/03 13:53:37;;;;;;;;;;;34.50;81.10;;;;;;5111845;27;19927;-75
2022/07/03 13:56:05;;;;;;;;;;;34.40;80.30;;;;;;5093682;28;19993;-75
2022/07/03 13:58:33;;;;;;;;;;;34.40;80.40;;;;;;5111200;28;19927;-76
2022/07/03 14:01:01;;;;;;;;;;;34.50;79.80;;;;;;5078048;28;19979;-76
2022/07/03 14:03:28;;;;;;;;;;;34.50;78.20;;;;;;5111200;28;19960;-75
2022/07/03 14:05:56;;;;;;;;;;;34.40;78.60;;;;;;5094658;28;19924;-75
2022/07/03 14:08:24;;;;;;;;;;;34.50;77.50;;;;;;5094252;28;19931;-75
2022/07/03 14:10:51;;;;;;;;;;;34.60;77.60;;;;;;5111248;28;20010;-75
2022/07/03 14:13:19;;;;;;;;;;;34.50;77.30;;;;;;5111111;28;20404;-75
2022/07/03 14:15:47;;;;;;;;;;;34.50;77.30;;;;;;5077684;28;19946;-75
2022/07/03 14:18:14;;;;;;;;;;;34.40;78.20;;;;;;5111382;28;19928;-75
2022/07/03 14:20:42;;;;;;;;;;;34.40;78.30;;;;;;5111234;28;19924;-75
2022/07/03 14:23:09;;;;;;;;;;;34.40;78.40;;;;;;5110596;28;20621;-75
2022/07/03 14:25:37;;;;;;;;;;;34.30;79.00;;;;;;5111908;28;19927;-75
2022/07/03 14:33:36;;;;;;;;;;;34.00;78.50;;;;;;5111283;28;19927;-75
2022/07/03 14:36:04;;;;;;;;;;;34.00;78.90;;;;;;5110881;28;19923;-75
2022/07/03 14:38:31;;;;;;;;;;;34.10;79.00;;;;;;5132966;27;19927;-75
2022/07/03 14:40:59;;;;;;;;;;;34.10;79.30;;;;;;5115304;27;19923;-75
2022/07/03 14:43:27;;;;;;;;;;;34.10;79.00;;;;;;5133074;27;19931;-75
2022/07/03 14:45:54;;;;;;;;;;;34.10;78.60;;;;;;5097896;27;20026;-75
2022/07/03 14:48:22;;;;;;;;;;;34.00;77.80;;;;;;5113006;27;19964;-75